sensor_id;sensor_type;location;lat;lon;timestamp;P1;durP1;ratioP1;P2;durP2;ratioP2
16352;SDS011;8286;51.274;9.542;2023-07-24T00:01:05;1.40;;;1.30;;
16352;SDS011;8286;51.274;9.542;2023-07-24T00:03:32;1.00;;;1.00;;
16352;SDS011;8286;51.274;9.542;2023-07-24T00:05:58;2.65;;;1.65;;
16352;SDS011;8286;51.274;9.542;2023-07-24T00:08:25;2.60;;;1.55;;
16352;SDS011;8286;51.274;9.542;2023-07-24T00:10:53;2.47;;;1.42;;
16352;SDS011;8286;51.274;9.542;2023-07-24T00:13:20;1.98;;;1.48;;
16352;SDS011;8286;51.274;9.542;2023-07-24T00:15:46;2.95;;;1.50;;
16352;SDS011;8286;51.274;9.542;2023-07-24T00:18:13;2.15;;;1.40;;
16352;SDS011;8286;51.274;9.542;2023-07-24T00:20:39;1.15;;;1.10;;
16352;SDS011;8286;51.274;9.542;2023-07-24T00:23:06;1.40;;;1.30;;
16352;SDS011;8286;51.274;9.542;2023-07-24T00:25:32;2.53;;;1.50;;
16352;SDS011;8286;51.274;9.542;2023-07-24T00:28:00;1.67;;;1.48;;
16352;SDS011;8286;51.274;9.542;2023-07-24T00:30:27;2.78;;;1.50;;
16352;SDS011;8286;51.274;9.542;2023-07-24T00:32:53;1.60;;;1.50;;
16352;SDS011;8286;51.274;9.542;2023-07-24T00:35:20;1.65;;;1.52;;
16352;SDS011;8286;51.274;9.542;2023-07-24T00:37:46;1.50;;;1.40;;
16352;SDS011;8286;51.274;9.542;2023-07-24T00:40:13;1.20;;;1.10;;
16352;SDS011;8286;51.274;9.542;2023-07-24T00:42:39;1.67;;;1.40;;
16352;SDS011;8286;51.274;9.542;2023-07-24T00:45:08;1.60;;;1.38;;
16352;SDS011;8286;51.274;9.542;2023-07-24T00:47:35;1.60;;;1.50;;
16352;SDS011;8286;51.274;9.542;2023-07-24T00:50:02;1.85;;;1.45;;
16352;SDS011;8286;51.274;9.542;2023-07-24T00:52:29;1.65;;;1.33;;
16352;SDS011;8286;51.274;9.542;2023-07-24T00:54:55;2.08;;;1.60;;
16352;SDS011;8286;51.274;9.542;2023-07-24T00:57:22;2.15;;;1.50;;
16352;SDS011;8286;51.274;9.542;2023-07-24T00:59:49;1.42;;;1.33;;
16352;SDS011;8286;51.274;9.542;2023-07-24T01:02:17;4.15;;;1.35;;
16352;SDS011;8286;51.274;9.542;2023-07-24T01:04:43;1.75;;;1.65;;
16352;SDS011;8286;51.274;9.542;2023-07-24T01:07:10;1.40;;;1.30;;
16352;SDS011;8286;51.274;9.542;2023-07-24T01:09:36;1.58;;;1.48;;
16352;SDS011;8286;51.274;9.542;2023-07-24T01:12:04;2.30;;;1.30;;
16352;SDS011;8286;51.274;9.542;2023-07-24T01:14:39;1.67;;;1.45;;
16352;SDS011;8286;51.274;9.542;2023-07-24T01:17:10;1.70;;;1.60;;
16352;SDS011;8286;51.274;9.542;2023-07-24T01:19:40;1.70;;;1.60;;
16352;SDS011;8286;51.274;9.542;2023-07-24T01:22:10;1.55;;;1.45;;
16352;SDS011;8286;51.274;9.542;2023-07-24T01:24:46;1.92;;;1.60;;
16352;SDS011;8286;51.274;9.542;2023-07-24T01:27:23;1.48;;;1.38;;
16352;SDS011;8286;51.274;9.542;2023-07-24T01:29:49;2.92;;;1.48;;
16352;SDS011;8286;51.274;9.542;2023-07-24T01:32:16;1.70;;;1.60;;
16352;SDS011;8286;51.274;9.542;2023-07-24T01:34:42;1.65;;;1.50;;
16352;SDS011;8286;51.274;9.542;2023-07-24T01:37:09;3.30;;;1.80;;
16352;SDS011;8286;51.274;9.542;2023-07-24T01:39:36;1.70;;;1.60;;
16352;SDS011;8286;51.274;9.542;2023-07-24T01:42:03;1.48;;;1.38;;
16352;SDS011;8286;51.274;9.542;2023-07-24T01:44:32;1.65;;;1.55;;
16352;SDS011;8286;51.274;9.542;2023-07-24T01:46:58;2.10;;;1.70;;
16352;SDS011;8286;51.274;9.542;2023-07-24T01:49:25;2.45;;;1.60;;
16352;SDS011;8286;51.274;9.542;2023-07-24T01:51:51;1.83;;;1.60;;
16352;SDS011;8286;51.274;9.542;2023-07-24T01:54:18;1.52;;;1.42;;
16352;SDS011;8286;51.274;9.542;2023-07-24T01:56:44;2.20;;;1.60;;
16352;SDS011;8286;51.274;9.542;2023-07-24T01:59:11;3.38;;;1.70;;
16352;SDS011;8286;51.274;9.542;2023-07-24T02:01:38;2.28;;;1.45;;
16352;SDS011;8286;51.274;9.542;2023-07-24T02:04:06;1.85;;;1.75;;
16352;SDS011;8286;51.274;9.542;2023-07-24T02:06:32;1.50;;;1.40;;
16352;SDS011;8286;51.274;9.542;2023-07-24T02:08:59;2.35;;;1.50;;
16352;SDS011;8286;51.274;9.542;2023-07-24T02:11:25;1.40;;;1.30;;
16352;SDS011;8286;51.274;9.542;2023-07-24T02:13:52;2.13;;;1.80;;
16352;SDS011;8286;51.274;9.542;2023-07-24T02:16:18;1.40;;;1.30;;
16352;SDS011;8286;51.274;9.542;2023-07-24T02:18:46;4.20;;;1.77;;
16352;SDS011;8286;51.274;9.542;2023-07-24T02:21:13;1.52;;;1.40;;
16352;SDS011;8286;51.274;9.542;2023-07-24T02:23:39;1.50;;;1.40;;
16352;SDS011;8286;51.274;9.542;2023-07-24T02:26:06;1.77;;;1.60;;
16352;SDS011;8286;51.274;9.542;2023-07-24T02:28:32;2.03;;;1.67;;
16352;SDS011;8286;51.274;9.542;2023-07-24T02:30:59;1.85;;;1.52;;
16352;SDS011;8286;51.274;9.542;2023-07-24T02:33:25;2.15;;;1.60;;
16352;SDS011;8286;51.274;9.542;2023-07-24T02:35:53;1.67;;;1.52;;
16352;SDS011;8286;51.274;9.542;2023-07-24T02:38:20;2.03;;;1.63;;
16352;SDS011;8286;51.274;9.542;2023-07-24T02:40:46;1.85;;;1.75;;
16352;SDS011;8286;51.274;9.542;2023-07-24T02:43:13;2.63;;;1.63;;
16352;SDS011;8286;51.274;9.542;2023-07-24T02:45:40;2.75;;;1.77;;
16352;SDS011;8286;51.274;9.542;2023-07-24T02:48:06;2.05;;;1.85;;
16352;SDS011;8286;51.274;9.542;2023-07-24T02:50:33;2.72;;;1.80;;
16352;SDS011;8286;51.274;9.542;2023-07-24T02:53:01;3.95;;;1.83;;
16352;SDS011;8286;51.274;9.542;2023-07-24T02:55:28;2.20;;;1.65;;
16352;SDS011;8286;51.274;9.542;2023-07-24T02:57:54;1.77;;;1.67;;
16352;SDS011;8286;51.274;9.542;2023-07-24T03:00:21;1.70;;;1.35;;
16352;SDS011;8286;51.274;9.542;2023-07-24T03:02:47;5.43;;;1.80;;
16352;SDS011;8286;51.274;9.542;2023-07-24T03:05:14;1.70;;;1.60;;
16352;SDS011;8286;51.274;9.542;2023-07-24T03:07:40;1.70;;;1.60;;
16352;SDS011;8286;51.274;9.542;2023-07-24T03:10:09;2.22;;;1.48;;
16352;SDS011;8286;51.274;9.542;2023-07-24T03:12:35;1.95;;;1.40;;
16352;SDS011;8286;51.274;9.542;2023-07-24T03:15:02;2.08;;;1.45;;
16352;SDS011;8286;51.274;9.542;2023-07-24T03:17:29;1.58;;;1.48;;
16352;SDS011;8286;51.274;9.542;2023-07-24T03:19:55;2.60;;;1.58;;
16352;SDS011;8286;51.274;9.542;2023-07-24T03:22:22;2.65;;;1.60;;
16352;SDS011;8286;51.274;9.542;2023-07-24T03:24:48;1.75;;;1.63;;
16352;SDS011;8286;51.274;9.542;2023-07-24T03:27:19;2.05;;;1.70;;
16352;SDS011;8286;51.274;9.542;2023-07-24T03:29:45;1.60;;;1.50;;
16352;SDS011;8286;51.274;9.542;2023-07-24T03:32:12;3.83;;;1.88;;
16352;SDS011;8286;51.274;9.542;2023-07-24T03:34:39;3.83;;;2.03;;
16352;SDS011;8286;51.274;9.542;2023-07-24T03:37:05;2.42;;;1.70;;
16352;SDS011;8286;51.274;9.542;2023-07-24T03:39:32;2.00;;;1.80;;
16352;SDS011;8286;51.274;9.542;2023-07-24T03:41:58;2.10;;;1.50;;
16352;SDS011;8286;51.274;9.542;2023-07-24T03:44:26;1.95;;;1.52;;
16352;SDS011;8286;51.274;9.542;2023-07-24T03:46:53;1.90;;;1.70;;
16352;SDS011;8286;51.274;9.542;2023-07-24T03:49:19;2.50;;;1.52;;
16352;SDS011;8286;51.274;9.542;2023-07-24T03:51:47;1.63;;;1.52;;
16352;SDS011;8286;51.274;9.542;2023-07-24T03:54:14;1.88;;;1.65;;
16352;SDS011;8286;51.274;9.542;2023-07-24T03:56:40;1.60;;;1.42;;
16352;SDS011;8286;51.274;9.542;2023-07-24T03:59:09;1.60;;;1.30;;
16352;SDS011;8286;51.274;9.542;2023-07-24T04:01:36;1.50;;;1.35;;
16352;SDS011;8286;51.274;9.542;2023-07-24T04:04:03;3.60;;;1.92;;
16352;SDS011;8286;51.274;9.542;2023-07-24T04:06:30;2.83;;;1.80;;
16352;SDS011;8286;51.274;9.542;2023-07-24T04:08:56;3.25;;;1.92;;
16352;SDS011;8286;51.274;9.542;2023-07-24T04:11:23;1.70;;;1.60;;
16352;SDS011;8286;51.274;9.542;2023-07-24T04:13:49;2.28;;;2.08;;
16352;SDS011;8286;51.274;9.542;2023-07-24T04:16:16;1.60;;;1.45;;
16352;SDS011;8286;51.274;9.542;2023-07-24T04:18:44;1.80;;;1.70;;
16352;SDS011;8286;51.274;9.542;2023-07-24T04:21:10;4.50;;;2.00;;
16352;SDS011;8286;51.274;9.542;2023-07-24T04:23:37;2.10;;;1.83;;
16352;SDS011;8286;51.274;9.542;2023-07-24T04:26:04;3.22;;;1.77;;
16352;SDS011;8286;51.274;9.542;2023-07-24T04:28:30;3.50;;;1.67;;
16352;SDS011;8286;51.274;9.542;2023-07-24T04:30:59;3.90;;;2.30;;
16352;SDS011;8286;51.274;9.542;2023-07-24T04:33:26;1.73;;;1.63;;
16352;SDS011;8286;51.274;9.542;2023-07-24T04:35:54;2.65;;;1.42;;
16352;SDS011;8286;51.274;9.542;2023-07-24T04:38:20;3.42;;;1.60;;
16352;SDS011;8286;51.274;9.542;2023-07-24T04:40:47;1.70;;;1.60;;
16352;SDS011;8286;51.274;9.542;2023-07-24T04:43:14;2.28;;;1.80;;
16352;SDS011;8286;51.274;9.542;2023-07-24T04:45:40;1.83;;;1.73;;
16352;SDS011;8286;51.274;9.542;2023-07-24T04:48:07;2.28;;;1.88;;
16352;SDS011;8286;51.274;9.542;2023-07-24T04:50:33;1.80;;;1.70;;
16352;SDS011;8286;51.274;9.542;2023-07-24T04:53:01;1.83;;;1.70;;
16352;SDS011;8286;51.274;9.542;2023-07-24T04:55:28;2.95;;;2.20;;
16352;SDS011;8286;51.274;9.542;2023-07-24T04:57:54;2.13;;;1.90;;
16352;SDS011;8286;51.274;9.542;2023-07-24T05:00:21;1.95;;;1.75;;
16352;SDS011;8286;51.274;9.542;2023-07-24T05:02:48;1.75;;;1.65;;
16352;SDS011;8286;51.274;9.542;2023-07-24T05:05:14;2.67;;;1.90;;
16352;SDS011;8286;51.274;9.542;2023-07-24T05:07:41;3.30;;;1.85;;
16352;SDS011;8286;51.274;9.542;2023-07-24T05:10:09;3.13;;;2.08;;
16352;SDS011;8286;51.274;9.542;2023-07-24T05:12:36;1.92;;;1.83;;
16352;SDS011;8286;51.274;9.542;2023-07-24T05:15:02;1.85;;;1.70;;
16352;SDS011;8286;51.274;9.542;2023-07-24T05:17:31;2.72;;;1.65;;
16352;SDS011;8286;51.274;9.542;2023-07-24T05:19:57;4.35;;;1.75;;
16352;SDS011;8286;51.274;9.542;2023-07-24T05:22:24;1.95;;;1.65;;
16352;SDS011;8286;51.274;9.542;2023-07-24T05:24:51;1.83;;;1.73;;
16352;SDS011;8286;51.274;9.542;2023-07-24T05:27:18;4.40;;;1.85;;
16352;SDS011;8286;51.274;9.542;2023-07-24T05:29:45;2.08;;;1.90;;
16352;SDS011;8286;51.274;9.542;2023-07-24T05:32:12;2.00;;;1.80;;
16352;SDS011;8286;51.274;9.542;2023-07-24T05:34:38;3.08;;;1.73;;
16352;SDS011;8286;51.274;9.542;2023-07-24T05:37:05;3.22;;;1.75;;
16352;SDS011;8286;51.274;9.542;2023-07-24T05:39:32;2.30;;;2.08;;
16352;SDS011;8286;51.274;9.542;2023-07-24T05:41:58;1.80;;;1.70;;
16352;SDS011;8286;51.274;9.542;2023-07-24T05:44:26;4.97;;;2.30;;
16352;SDS011;8286;51.274;9.542;2023-07-24T05:46:53;2.13;;;1.92;;
16352;SDS011;8286;51.274;9.542;2023-07-24T05:49:19;3.28;;;2.33;;
16352;SDS011;8286;51.274;9.542;2023-07-24T05:51:46;2.70;;;2.10;;
16352;SDS011;8286;51.274;9.542;2023-07-24T05:54:12;2.95;;;1.80;;
16352;SDS011;8286;51.274;9.542;2023-07-24T05:56:39;2.53;;;2.30;;
16352;SDS011;8286;51.274;9.542;2023-07-24T05:59:06;2.53;;;2.10;;
16352;SDS011;8286;51.274;9.542;2023-07-24T06:01:34;6.13;;;2.20;;
16352;SDS011;8286;51.274;9.542;2023-07-24T06:04:00;1.98;;;1.77;;
16352;SDS011;8286;51.274;9.542;2023-07-24T06:06:27;1.92;;;1.83;;
16352;SDS011;8286;51.274;9.542;2023-07-24T06:08:54;7.75;;;2.35;;
16352;SDS011;8286;51.274;9.542;2023-07-24T06:11:20;5.60;;;1.77;;
16352;SDS011;8286;51.274;9.542;2023-07-24T06:13:47;2.15;;;1.73;;
16352;SDS011;8286;51.274;9.542;2023-07-24T06:16:14;2.28;;;2.08;;
16352;SDS011;8286;51.274;9.542;2023-07-24T06:18:42;2.38;;;1.98;;
16352;SDS011;8286;51.274;9.542;2023-07-24T06:21:09;4.97;;;2.22;;
16352;SDS011;8286;51.274;9.542;2023-07-24T06:23:35;3.42;;;2.28;;
16352;SDS011;8286;51.274;9.542;2023-07-24T06:26:02;1.80;;;1.70;;
16352;SDS011;8286;51.274;9.542;2023-07-24T06:28:29;2.15;;;1.95;;
16352;SDS011;8286;51.274;9.542;2023-07-24T06:30:57;4.07;;;2.03;;
16352;SDS011;8286;51.274;9.542;2023-07-24T06:33:23;2.55;;;2.13;;
16352;SDS011;8286;51.274;9.542;2023-07-24T06:35:51;2.78;;;2.25;;
16352;SDS011;8286;51.274;9.542;2023-07-24T06:38:18;3.50;;;2.38;;
16352;SDS011;8286;51.274;9.542;2023-07-24T06:40:46;2.10;;;1.90;;
16352;SDS011;8286;51.274;9.542;2023-07-24T06:43:13;4.25;;;2.72;;
16352;SDS011;8286;51.274;9.542;2023-07-24T06:45:39;2.50;;;2.10;;
16352;SDS011;8286;51.274;9.542;2023-07-24T06:48:06;4.47;;;2.28;;
16352;SDS011;8286;51.274;9.542;2023-07-24T06:50:32;2.38;;;2.20;;
16352;SDS011;8286;51.274;9.542;2023-07-24T06:53:00;3.88;;;2.35;;
16352;SDS011;8286;51.274;9.542;2023-07-24T06:55:27;2.70;;;2.35;;
16352;SDS011;8286;51.274;9.542;2023-07-24T06:57:53;4.28;;;2.22;;
16352;SDS011;8286;51.274;9.542;2023-07-24T07:00:20;4.10;;;2.10;;
16352;SDS011;8286;51.274;9.542;2023-07-24T07:02:47;3.30;;;2.28;;
16352;SDS011;8286;51.274;9.542;2023-07-24T07:05:13;4.32;;;2.42;;
16352;SDS011;8286;51.274;9.542;2023-07-24T07:07:40;4.13;;;2.25;;
16352;SDS011;8286;51.274;9.542;2023-07-24T07:10:08;2.78;;;2.28;;
16352;SDS011;8286;51.274;9.542;2023-07-24T07:12:35;4.15;;;2.55;;
16352;SDS011;8286;51.274;9.542;2023-07-24T07:15:02;5.30;;;2.78;;
16352;SDS011;8286;51.274;9.542;2023-07-24T07:17:29;3.22;;;2.45;;
16352;SDS011;8286;51.274;9.542;2023-07-24T07:19:55;3.53;;;2.33;;
16352;SDS011;8286;51.274;9.542;2023-07-24T07:22:22;3.60;;;2.25;;
16352;SDS011;8286;51.274;9.542;2023-07-24T07:24:49;3.05;;;2.53;;
16352;SDS011;8286;51.274;9.542;2023-07-24T07:27:17;2.38;;;2.08;;
16352;SDS011;8286;51.274;9.542;2023-07-24T07:29:43;4.03;;;2.15;;
16352;SDS011;8286;51.274;9.542;2023-07-24T07:32:10;4.95;;;2.72;;
16352;SDS011;8286;51.274;9.542;2023-07-24T07:34:36;3.67;;;2.58;;
16352;SDS011;8286;51.274;9.542;2023-07-24T07:37:03;3.10;;;2.60;;
16352;SDS011;8286;51.274;9.542;2023-07-24T07:39:30;4.93;;;2.53;;
16352;SDS011;8286;51.274;9.542;2023-07-24T07:41:57;2.97;;;2.60;;
16352;SDS011;8286;51.274;9.542;2023-07-24T07:44:25;3.83;;;2.35;;
16352;SDS011;8286;51.274;9.542;2023-07-24T07:46:52;4.25;;;2.53;;
16352;SDS011;8286;51.274;9.542;2023-07-24T07:49:18;4.15;;;2.78;;
16352;SDS011;8286;51.274;9.542;2023-07-24T07:51:45;2.58;;;2.38;;
16352;SDS011;8286;51.274;9.542;2023-07-24T07:54:12;3.17;;;2.53;;
16352;SDS011;8286;51.274;9.542;2023-07-24T07:56:38;4.60;;;2.50;;
16352;SDS011;8286;51.274;9.542;2023-07-24T07:59:05;5.63;;;2.97;;
16352;SDS011;8286;51.274;9.542;2023-07-24T08:01:33;5.25;;;3.33;;
16352;SDS011;8286;51.274;9.542;2023-07-24T08:04:01;3.20;;;2.55;;
16352;SDS011;8286;51.274;9.542;2023-07-24T08:06:28;3.15;;;2.80;;
16352;SDS011;8286;51.274;9.542;2023-07-24T08:08:55;9.27;;;3.15;;
16352;SDS011;8286;51.274;9.542;2023-07-24T08:11:21;3.78;;;2.88;;
16352;SDS011;8286;51.274;9.542;2023-07-24T08:13:48;4.00;;;2.70;;
16352;SDS011;8286;51.274;9.542;2023-07-24T08:16:15;6.68;;;3.03;;
16352;SDS011;8286;51.274;9.542;2023-07-24T08:18:45;4.50;;;3.08;;
16352;SDS011;8286;51.274;9.542;2023-07-24T08:21:12;3.00;;;2.72;;
16352;SDS011;8286;51.274;9.542;2023-07-24T08:23:39;5.72;;;2.78;;
16352;SDS011;8286;51.274;9.542;2023-07-24T08:26:06;3.45;;;2.97;;
16352;SDS011;8286;51.274;9.542;2023-07-24T08:28:33;5.47;;;2.97;;
16352;SDS011;8286;51.274;9.542;2023-07-24T08:31:00;3.15;;;2.65;;
16352;SDS011;8286;51.274;9.542;2023-07-24T08:33:27;3.72;;;2.80;;
16352;SDS011;8286;51.274;9.542;2023-07-24T08:35:59;3.10;;;2.80;;
16352;SDS011;8286;51.274;9.542;2023-07-24T08:38:26;3.55;;;2.72;;
16352;SDS011;8286;51.274;9.542;2023-07-24T08:40:59;3.13;;;2.80;;
16352;SDS011;8286;51.274;9.542;2023-07-24T08:43:27;5.25;;;2.85;;
16352;SDS011;8286;51.274;9.542;2023-07-24T08:45:55;4.22;;;2.83;;
16352;SDS011;8286;51.274;9.542;2023-07-24T08:48:22;4.72;;;2.60;;
16352;SDS011;8286;51.274;9.542;2023-07-24T08:50:50;4.35;;;2.83;;
16352;SDS011;8286;51.274;9.542;2023-07-24T08:53:18;4.15;;;2.80;;
16352;SDS011;8286;51.274;9.542;2023-07-24T08:55:46;3.13;;;2.80;;
16352;SDS011;8286;51.274;9.542;2023-07-24T08:58:14;3.92;;;2.80;;
16352;SDS011;8286;51.274;9.542;2023-07-24T09:00:41;5.13;;;3.03;;
16352;SDS011;8286;51.274;9.542;2023-07-24T09:03:07;3.97;;;2.55;;
16352;SDS011;8286;51.274;9.542;2023-07-24T09:05:34;4.43;;;2.65;;
16352;SDS011;8286;51.274;9.542;2023-07-24T09:08:00;8.88;;;3.15;;
16352;SDS011;8286;51.274;9.542;2023-07-24T09:10:28;2.95;;;2.65;;
16352;SDS011;8286;51.274;9.542;2023-07-24T09:12:55;5.43;;;3.00;;
16352;SDS011;8286;51.274;9.542;2023-07-24T09:15:21;5.25;;;3.67;;
16352;SDS011;8286;51.274;9.542;2023-07-24T09:17:49;5.57;;;3.03;;
16352;SDS011;8286;51.274;9.542;2023-07-24T09:20:16;2.97;;;2.70;;
16352;SDS011;8286;51.274;9.542;2023-07-24T09:22:47;3.50;;;2.85;;
16352;SDS011;8286;51.274;9.542;2023-07-24T09:25:14;4.70;;;2.80;;
16352;SDS011;8286;51.274;9.542;2023-07-24T09:27:42;3.97;;;3.22;;
16352;SDS011;8286;51.274;9.542;2023-07-24T09:30:12;7.35;;;3.55;;
16352;SDS011;8286;51.274;9.542;2023-07-24T09:32:39;4.40;;;2.60;;
16352;SDS011;8286;51.274;9.542;2023-07-24T09:35:15;4.35;;;3.15;;
16352;SDS011;8286;51.274;9.542;2023-07-24T09:37:42;4.43;;;2.92;;
16352;SDS011;8286;51.274;9.542;2023-07-24T09:40:09;5.32;;;3.25;;
16352;SDS011;8286;51.274;9.542;2023-07-24T09:42:37;4.68;;;3.00;;
16352;SDS011;8286;51.274;9.542;2023-07-24T09:45:07;4.53;;;3.10;;
16352;SDS011;8286;51.274;9.542;2023-07-24T09:47:34;2.97;;;2.60;;
16352;SDS011;8286;51.274;9.542;2023-07-24T09:50:02;5.93;;;3.25;;
16352;SDS011;8286;51.274;9.542;2023-07-24T09:52:30;3.88;;;2.92;;
16352;SDS011;8286;51.274;9.542;2023-07-24T09:54:59;4.55;;;3.35;;
16352;SDS011;8286;51.274;9.542;2023-07-24T09:57:27;3.28;;;2.70;;
16352;SDS011;8286;51.274;9.542;2023-07-24T09:59:54;3.22;;;2.92;;
16352;SDS011;8286;51.274;9.542;2023-07-24T10:02:24;5.65;;;3.85;;
16352;SDS011;8286;51.274;9.542;2023-07-24T10:04:51;5.47;;;3.47;;
16352;SDS011;8286;51.274;9.542;2023-07-24T10:07:18;4.00;;;3.00;;
16352;SDS011;8286;51.274;9.542;2023-07-24T10:09:46;8.95;;;3.13;;
16352;SDS011;8286;51.274;9.542;2023-07-24T10:12:13;4.18;;;3.25;;
16352;SDS011;8286;51.274;9.542;2023-07-24T10:14:41;4.85;;;3.58;;
16352;SDS011;8286;51.274;9.542;2023-07-24T10:17:08;5.18;;;3.50;;
16352;SDS011;8286;51.274;9.542;2023-07-24T10:19:36;8.30;;;3.40;;
16352;SDS011;8286;51.274;9.542;2023-07-24T10:22:06;6.13;;;3.30;;
16352;SDS011;8286;51.274;9.542;2023-07-24T10:24:33;3.97;;;3.40;;
16352;SDS011;8286;51.274;9.542;2023-07-24T10:27:00;5.50;;;3.13;;
16352;SDS011;8286;51.274;9.542;2023-07-24T10:29:28;3.78;;;3.20;;
16352;SDS011;8286;51.274;9.542;2023-07-24T10:31:55;5.13;;;3.08;;
16352;SDS011;8286;51.274;9.542;2023-07-24T10:34:22;5.80;;;3.50;;
16352;SDS011;8286;51.274;9.542;2023-07-24T10:36:50;4.90;;;3.67;;
16352;SDS011;8286;51.274;9.542;2023-07-24T10:39:16;5.97;;;3.38;;
16352;SDS011;8286;51.274;9.542;2023-07-24T10:41:45;4.00;;;3.28;;
16352;SDS011;8286;51.274;9.542;2023-07-24T10:44:12;10.13;;;3.58;;
16352;SDS011;8286;51.274;9.542;2023-07-24T10:46:39;6.22;;;3.42;;
16352;SDS011;8286;51.274;9.542;2023-07-24T10:49:07;4.78;;;3.65;;
16352;SDS011;8286;51.274;9.542;2023-07-24T10:51:34;4.82;;;3.17;;
16352;SDS011;8286;51.274;9.542;2023-07-24T10:54:04;7.80;;;3.67;;
16352;SDS011;8286;51.274;9.542;2023-07-24T10:56:31;4.35;;;3.20;;
16352;SDS011;8286;51.274;9.542;2023-07-24T10:59:01;3.92;;;3.47;;
16352;SDS011;8286;51.274;9.542;2023-07-24T11:01:29;4.63;;;3.35;;
16352;SDS011;8286;51.274;9.542;2023-07-24T11:03:56;3.75;;;2.92;;
16352;SDS011;8286;51.274;9.542;2023-07-24T11:06:23;5.53;;;3.45;;
16352;SDS011;8286;51.274;9.542;2023-07-24T11:08:52;4.15;;;3.47;;
16352;SDS011;8286;51.274;9.542;2023-07-24T11:11:22;4.00;;;2.97;;
16352;SDS011;8286;51.274;9.542;2023-07-24T11:13:54;3.17;;;2.88;;
16352;SDS011;8286;51.274;9.542;2023-07-24T11:16:20;3.53;;;3.03;;
16352;SDS011;8286;51.274;9.542;2023-07-24T11:18:47;3.75;;;3.17;;
16352;SDS011;8286;51.274;9.542;2023-07-24T11:21:14;5.68;;;3.35;;
16352;SDS011;8286;51.274;9.542;2023-07-24T11:23:45;3.72;;;3.40;;
16352;SDS011;8286;51.274;9.542;2023-07-24T11:26:14;5.47;;;3.70;;
16352;SDS011;8286;51.274;9.542;2023-07-24T11:28:43;5.57;;;3.67;;
16352;SDS011;8286;51.274;9.542;2023-07-24T11:31:09;4.00;;;3.63;;
16352;SDS011;8286;51.274;9.542;2023-07-24T11:33:37;6.85;;;2.95;;
16352;SDS011;8286;51.274;9.542;2023-07-24T11:36:04;6.32;;;2.80;;
16352;SDS011;8286;51.274;9.542;2023-07-24T11:38:31;4.05;;;3.47;;
16352;SDS011;8286;51.274;9.542;2023-07-24T11:40:58;7.03;;;4.18;;
16352;SDS011;8286;51.274;9.542;2023-07-24T11:43:25;4.20;;;3.30;;
16352;SDS011;8286;51.274;9.542;2023-07-24T11:45:53;5.20;;;3.10;;
16352;SDS011;8286;51.274;9.542;2023-07-24T11:48:20;4.05;;;2.90;;
16352;SDS011;8286;51.274;9.542;2023-07-24T11:50:48;5.15;;;3.42;;
16352;SDS011;8286;51.274;9.542;2023-07-24T11:53:19;4.53;;;2.70;;
16352;SDS011;8286;51.274;9.542;2023-07-24T11:55:47;3.38;;;2.70;;
16352;SDS011;8286;51.274;9.542;2023-07-24T11:58:14;3.67;;;3.05;;
16352;SDS011;8286;51.274;9.542;2023-07-24T12:00:41;5.25;;;3.17;;
16352;SDS011;8286;51.274;9.542;2023-07-24T12:03:09;4.72;;;3.22;;
16352;SDS011;8286;51.274;9.542;2023-07-24T12:05:38;3.15;;;2.85;;
16352;SDS011;8286;51.274;9.542;2023-07-24T12:08:06;5.00;;;3.17;;
16352;SDS011;8286;51.274;9.542;2023-07-24T12:10:35;4.65;;;3.10;;
16352;SDS011;8286;51.274;9.542;2023-07-24T12:13:02;5.05;;;3.35;;
16352;SDS011;8286;51.274;9.542;2023-07-24T12:15:28;3.78;;;3.17;;
16352;SDS011;8286;51.274;9.542;2023-07-24T12:17:56;4.38;;;3.22;;
16352;SDS011;8286;51.274;9.542;2023-07-24T12:20:24;7.78;;;3.30;;
16352;SDS011;8286;51.274;9.542;2023-07-24T12:22:51;5.35;;;3.70;;
16352;SDS011;8286;51.274;9.542;2023-07-24T12:25:18;4.68;;;2.92;;
16352;SDS011;8286;51.274;9.542;2023-07-24T12:27:45;4.30;;;3.58;;
16352;SDS011;8286;51.274;9.542;2023-07-24T12:30:12;5.63;;;3.72;;
16352;SDS011;8286;51.274;9.542;2023-07-24T12:32:39;4.80;;;3.45;;
16352;SDS011;8286;51.274;9.542;2023-07-24T12:35:06;4.75;;;3.15;;
16352;SDS011;8286;51.274;9.542;2023-07-24T12:37:35;7.97;;;3.53;;
16352;SDS011;8286;51.274;9.542;2023-07-24T12:40:04;5.07;;;3.45;;
16352;SDS011;8286;51.274;9.542;2023-07-24T12:42:32;4.95;;;3.28;;
16352;SDS011;8286;51.274;9.542;2023-07-24T12:44:58;4.78;;;3.35;;
16352;SDS011;8286;51.274;9.542;2023-07-24T12:47:27;4.85;;;3.47;;
16352;SDS011;8286;51.274;9.542;2023-07-24T12:49:54;4.07;;;3.22;;
16352;SDS011;8286;51.274;9.542;2023-07-24T12:52:22;4.53;;;3.42;;
16352;SDS011;8286;51.274;9.542;2023-07-24T12:54:50;7.40;;;3.90;;
16352;SDS011;8286;51.274;9.542;2023-07-24T12:57:17;7.30;;;4.05;;
16352;SDS011;8286;51.274;9.542;2023-07-24T12:59:43;4.57;;;3.85;;
16352;SDS011;8286;51.274;9.542;2023-07-24T13:02:10;7.05;;;3.63;;
16352;SDS011;8286;51.274;9.542;2023-07-24T13:04:36;5.93;;;3.65;;
16352;SDS011;8286;51.274;9.542;2023-07-24T13:07:03;4.47;;;3.60;;
16352;SDS011;8286;51.274;9.542;2023-07-24T13:09:30;4.45;;;3.25;;
16352;SDS011;8286;51.274;9.542;2023-07-24T13:11:58;7.68;;;3.88;;
16352;SDS011;8286;51.274;9.542;2023-07-24T13:14:25;9.52;;;3.63;;
16352;SDS011;8286;51.274;9.542;2023-07-24T13:16:51;9.15;;;3.70;;
16352;SDS011;8286;51.274;9.542;2023-07-24T13:19:18;4.95;;;3.92;;
16352;SDS011;8286;51.274;9.542;2023-07-24T13:21:45;5.20;;;3.45;;
16352;SDS011;8286;51.274;9.542;2023-07-24T13:24:12;4.65;;;3.45;;
16352;SDS011;8286;51.274;9.542;2023-07-24T13:26:38;5.85;;;3.70;;
16352;SDS011;8286;51.274;9.542;2023-07-24T13:29:07;6.05;;;4.05;;
16352;SDS011;8286;51.274;9.542;2023-07-24T13:31:33;5.13;;;3.63;;
16352;SDS011;8286;51.274;9.542;2023-07-24T13:34:00;4.70;;;3.83;;
16352;SDS011;8286;51.274;9.542;2023-07-24T13:36:27;5.30;;;4.28;;
16352;SDS011;8286;51.274;9.542;2023-07-24T13:38:53;3.90;;;3.45;;
16352;SDS011;8286;51.274;9.542;2023-07-24T13:41:20;5.53;;;3.80;;
16352;SDS011;8286;51.274;9.542;2023-07-24T13:43:46;4.20;;;3.80;;
16352;SDS011;8286;51.274;9.542;2023-07-24T13:46:14;4.32;;;3.33;;
16352;SDS011;8286;51.274;9.542;2023-07-24T13:48:41;4.55;;;3.30;;
16352;SDS011;8286;51.274;9.542;2023-07-24T13:51:08;7.68;;;3.58;;
16352;SDS011;8286;51.274;9.542;2023-07-24T13:53:34;5.95;;;3.30;;
16352;SDS011;8286;51.274;9.542;2023-07-24T13:56:01;5.15;;;3.17;;
16352;SDS011;8286;51.274;9.542;2023-07-24T13:58:28;3.35;;;2.95;;
16352;SDS011;8286;51.274;9.542;2023-07-24T14:00:54;4.82;;;3.05;;
16352;SDS011;8286;51.274;9.542;2023-07-24T14:03:22;4.68;;;3.25;;
16352;SDS011;8286;51.274;9.542;2023-07-24T14:05:53;4.38;;;3.08;;
16352;SDS011;8286;51.274;9.542;2023-07-24T14:08:20;3.70;;;2.85;;
16352;SDS011;8286;51.274;9.542;2023-07-24T14:10:47;7.00;;;3.22;;
16352;SDS011;8286;51.274;9.542;2023-07-24T14:13:13;3.97;;;2.92;;
16352;SDS011;8286;51.274;9.542;2023-07-24T14:15:40;5.47;;;2.88;;
16352;SDS011;8286;51.274;9.542;2023-07-24T14:18:06;4.28;;;3.28;;
16352;SDS011;8286;51.274;9.542;2023-07-24T14:20:34;6.10;;;3.05;;
16352;SDS011;8286;51.274;9.542;2023-07-24T14:23:02;4.50;;;3.45;;
16352;SDS011;8286;51.274;9.542;2023-07-24T14:25:28;3.53;;;3.22;;
16352;SDS011;8286;51.274;9.542;2023-07-24T14:27:55;4.22;;;3.30;;
16352;SDS011;8286;51.274;9.542;2023-07-24T14:30:21;3.78;;;3.33;;
16352;SDS011;8286;51.274;9.542;2023-07-24T14:32:48;4.75;;;2.88;;
16352;SDS011;8286;51.274;9.542;2023-07-24T14:35:15;4.43;;;3.08;;
16352;SDS011;8286;51.274;9.542;2023-07-24T14:37:43;6.78;;;3.13;;
16352;SDS011;8286;51.274;9.542;2023-07-24T14:40:10;3.55;;;2.80;;
16352;SDS011;8286;51.274;9.542;2023-07-24T14:42:37;2.88;;;1.90;;
16352;SDS011;8286;51.274;9.542;2023-07-24T14:45:04;1.33;;;1.23;;
16352;SDS011;8286;51.274;9.542;2023-07-24T14:47:33;5.10;;;1.33;;
16352;SDS011;8286;51.274;9.542;2023-07-24T14:50:00;3.10;;;1.25;;
16352;SDS011;8286;51.274;9.542;2023-07-24T14:52:26;2.22;;;1.20;;
16352;SDS011;8286;51.274;9.542;2023-07-24T14:54:54;4.57;;;1.85;;
16352;SDS011;8286;51.274;9.542;2023-07-24T14:57:21;8.27;;;1.48;;
16352;SDS011;8286;51.274;9.542;2023-07-24T14:59:47;3.95;;;1.50;;